createdAt,value
2018-08-03T00:00:28.256Z,28.39
2018-08-03T00:01:08.773Z,28.36
2018-08-03T00:01:49.245Z,28.43
2018-08-03T00:02:29.766Z,28.4
2018-08-03T00:03:10.272Z,28.49
2018-08-03T00:03:50.824Z,28.51
2018-08-03T00:04:31.270Z,28.61
2018-08-03T00:05:11.799Z,28.51
2018-08-03T00:05:52.254Z,28.58
2018-08-03T00:06:32.777Z,28.48
2018-08-03T00:07:13.268Z,28.46
2018-08-03T00:07:53.793Z,28.43
2018-08-03T00:08:34.401Z,28.44
2018-08-03T00:09:14.801Z,28.46
2018-08-03T00:09:55.258Z,28.34
2018-08-03T00:10:35.775Z,28.39
2018-08-03T00:11:16.245Z,28.33
2018-08-03T00:11:56.730Z,28.39
2018-08-03T00:12:37.246Z,28.41
2018-08-03T00:13:17.695Z,28.34
2018-08-03T00:13:58.219Z,28.39
2018-08-03T00:14:38.733Z,28.43
2018-08-03T00:15:19.259Z,28.39
2018-08-03T00:15:59.687Z,28.41
2018-08-03T00:16:40.255Z,28.43
2018-08-03T00:17:20.770Z,28.31
2018-08-03T00:18:01.220Z,28.41
2018-08-03T00:18:41.693Z,28.34
2018-08-03T00:19:22.213Z,28.3
2018-08-03T00:20:02.738Z,28.34
2018-08-03T00:20:43.186Z,28.3
2018-08-03T00:21:23.723Z,28.33
2018-08-03T00:22:04.196Z,28.3
2018-08-03T00:22:44.705Z,28.33
2018-08-03T00:23:25.163Z,28.37
2018-08-03T00:24:05.686Z,28.36
2018-08-03T00:24:46.179Z,28.41
2018-08-03T00:25:26.707Z,28.36
2018-08-03T00:26:07.155Z,28.41
2018-08-03T00:26:47.681Z,28.29
2018-08-03T00:27:28.139Z,28.33
2018-08-03T00:28:08.689Z,28.37
2018-08-03T00:28:49.181Z,28.29
2018-08-03T00:29:29.668Z,28.31
2018-08-03T00:30:10.180Z,28.33
2018-08-03T00:30:50.684Z,28.3
2018-08-03T00:31:31.213Z,28.33
2018-08-03T00:32:11.737Z,28.3
2018-08-03T00:32:52.187Z,28.3
2018-08-03T00:33:32.702Z,28.24
2018-08-03T00:34:13.191Z,28.33
2018-08-03T00:34:53.674Z,28.29
2018-08-03T00:35:34.180Z,28.36
2018-08-03T00:36:14.662Z,28.24
2018-08-03T00:36:55.122Z,28.21
2018-08-03T00:37:35.622Z,28.14
2018-08-03T00:38:16.148Z,28.03
2018-08-03T00:38:56.643Z,28.06
2018-08-03T00:39:37.139Z,28.04
2018-08-03T00:40:17.686Z,28.07
2018-08-03T00:40:58.118Z,28.14
2018-08-03T00:41:38.589Z,28.21
2018-08-03T00:42:19.129Z,28.24
2018-08-03T00:42:59.593Z,28.19
2018-08-03T00:43:40.094Z,28.21
2018-08-03T00:44:20.557Z,28.22
2018-08-03T00:45:01.050Z,28.24
2018-08-03T00:45:41.521Z,28.27
2018-08-03T00:46:22.050Z,28.19
2018-08-03T00:47:02.528Z,28.22
2018-08-03T00:47:43.015Z,28.22
2018-08-03T00:48:23.514Z,28.17
2018-08-03T00:49:03.992Z,28.17
2018-08-03T00:49:44.472Z,28.17
2018-08-03T00:50:25.011Z,28.15
2018-08-03T00:51:05.472Z,28.17
2018-08-03T00:51:46.328Z,28.18
2018-08-03T00:52:28.376Z,28.18
2018-08-03T00:53:08.888Z,28.15
2018-08-03T00:53:49.387Z,28.17
2018-08-03T00:54:29.836Z,28.17
2018-08-03T00:55:10.348Z,28.11
2018-08-03T00:55:50.896Z,28.07
2018-08-03T00:56:31.411Z,28.15
2018-08-03T00:57:12.156Z,28.15
2018-08-03T00:57:52.698Z,28.11
2018-08-03T00:58:33.128Z,28.11
2018-08-03T00:59:13.650Z,28.15
2018-08-03T00:59:54.139Z,28.07
2018-08-03T01:00:34.640Z,28.15
2018-08-03T01:01:15.144Z,28.15
2018-08-03T01:01:55.613Z,28.14
2018-08-03T01:02:36.106Z,28.11
2018-08-03T01:03:16.593Z,28.07
2018-08-03T01:05:14.836Z,28.18
2018-08-03T01:05:55.348Z,28.21
2018-08-03T01:06:35.864Z,28.27
2018-08-03T01:07:16.358Z,28.29
2018-08-03T01:07:57.711Z,28.21
2018-08-03T01:08:38.241Z,28.21
2018-08-03T01:09:18.662Z,28.19
2018-08-03T01:09:59.142Z,28.21
2018-08-03T01:10:39.649Z,28.07
2018-08-03T01:11:20.181Z,28.11
2018-08-03T01:12:00.711Z,28.17
2018-08-03T01:12:41.177Z,28.06
2018-08-03T01:13:21.646Z,28.09
2018-08-03T01:14:02.151Z,28.07
2018-08-03T01:14:42.614Z,28.11
2018-08-03T01:15:23.171Z,28.12
2018-08-03T01:16:03.565Z,28.14
2018-08-03T01:16:44.084Z,28.19
2018-08-03T01:17:24.559Z,28.09
2018-08-03T01:18:05.119Z,28.14
2018-08-03T01:18:45.569Z,28.12
2018-08-03T01:19:26.100Z,28.09
2018-08-03T01:20:06.631Z,28
2018-08-03T01:20:47.145Z,27.99
2018-08-03T01:21:27.617Z,27.99
2018-08-03T01:22:08.093Z,27.97
2018-08-03T01:22:48.625Z,27.9
2018-08-03T01:23:29.098Z,27.93
2018-08-03T01:24:09.632Z,27.99
2018-08-03T01:24:50.180Z,27.82
2018-08-03T01:25:30.596Z,27.85
2018-08-03T01:26:11.069Z,27.79
2018-08-03T01:26:51.592Z,27.78
2018-08-03T01:27:32.418Z,27.78
2018-08-03T01:28:12.880Z,27.7
2018-08-03T01:28:53.392Z,27.84
2018-08-03T01:29:33.860Z,27.74
2018-08-03T01:30:14.374Z,27.63
2018-08-03T01:30:54.918Z,27.54
2018-08-03T01:31:35.387Z,27.57
2018-08-03T01:32:15.901Z,27.54
2018-08-03T01:32:56.379Z,27.49
2018-08-03T01:33:36.822Z,27.5
2018-08-03T01:34:17.323Z,27.46
2018-08-03T01:34:57.828Z,27.34
2018-08-03T01:35:38.470Z,27.37
2018-08-03T01:36:19.013Z,27.47
2018-08-03T01:36:59.492Z,27.47
2018-08-03T01:37:39.956Z,27.46
2018-08-03T01:38:20.470Z,27.51
2018-08-03T01:39:00.896Z,27.46
2018-08-03T01:39:41.402Z,27.4
2018-08-03T01:40:21.900Z,27.44
2018-08-03T01:41:02.468Z,27.43
2018-08-03T01:41:42.877Z,27.46
2018-08-03T01:42:23.395Z,27.49
2018-08-03T01:43:03.898Z,27.5
2018-08-03T01:43:44.379Z,27.6
2018-08-03T01:44:24.841Z,27.6
2018-08-03T01:45:05.311Z,27.57
2018-08-03T01:45:45.876Z,27.57
2018-08-03T01:46:26.306Z,27.5
2018-08-03T01:47:06.788Z,27.59
2018-08-03T01:47:47.291Z,27.5
2018-08-03T01:48:27.782Z,27.54
2018-08-03T01:49:08.263Z,27.55
2018-08-03T01:49:48.760Z,27.59
2018-08-03T01:50:29.364Z,27.57
2018-08-03T01:51:09.873Z,27.6
2018-08-03T01:51:50.326Z,27.49
2018-08-03T01:52:30.819Z,27.6
2018-08-03T01:53:11.337Z,27.51
2018-08-03T01:53:52.174Z,27.46
2018-08-03T01:54:32.614Z,27.49
2018-08-03T01:55:13.152Z,27.55
2018-08-03T01:55:53.608Z,27.47
2018-08-03T01:56:34.143Z,27.51
2018-08-03T01:57:14.661Z,27.5
2018-08-03T01:57:55.181Z,27.59
2018-08-03T01:58:35.665Z,27.59
2018-08-03T01:59:16.191Z,27.57
2018-08-03T01:59:56.700Z,27.6
2018-08-03T02:00:37.153Z,27.59
2018-08-03T02:01:17.603Z,27.62
2018-08-03T02:01:58.105Z,27.6
2018-08-03T02:02:38.603Z,27.65
2018-08-03T02:03:19.155Z,27.57
2018-08-03T02:03:59.537Z,27.66
2018-08-03T02:04:40.044Z,27.66
2018-08-03T02:05:20.527Z,27.62
2018-08-03T02:06:01.020Z,27.62
2018-08-03T02:06:41.509Z,27.6
2018-08-03T02:07:22.006Z,27.63
2018-08-03T02:08:02.501Z,27.47
2018-08-03T02:08:43.037Z,27.46
2018-08-03T02:09:23.516Z,27.46
2018-08-03T02:10:03.976Z,27.46
2018-08-03T02:10:44.500Z,27.54
2018-08-03T02:11:24.965Z,27.6
2018-08-03T02:12:05.468Z,27.51
2018-08-03T02:12:45.963Z,27.59
2018-08-03T02:13:26.419Z,27.66
2018-08-03T02:14:06.935Z,27.67
2018-08-03T02:14:47.407Z,27.66
2018-08-03T02:15:27.898Z,27.5
2018-08-03T02:16:08.376Z,27.44
2018-08-03T02:16:48.910Z,27.57
2018-08-03T02:17:29.376Z,27.49
2018-08-03T02:18:09.888Z,27.51
2018-08-03T02:18:50.391Z,27.63
2018-08-03T02:19:30.861Z,27.62
2018-08-03T02:20:11.345Z,27.49
2018-08-03T02:20:51.858Z,27.46
2018-08-03T02:21:32.326Z,27.51
2018-08-03T02:22:12.774Z,27.54
2018-08-03T02:22:53.314Z,27.66
2018-08-03T02:23:33.816Z,27.51
2018-08-03T02:24:14.308Z,27.59
2018-08-03T02:24:54.754Z,27.6
2018-08-03T02:25:35.277Z,27.67
2018-08-03T02:26:15.828Z,27.75
2018-08-03T02:26:56.357Z,27.66
2018-08-03T02:27:36.823Z,27.69
2018-08-03T02:28:17.356Z,27.57
2018-08-03T02:28:57.807Z,27.69
2018-08-03T02:29:38.319Z,27.65
2018-08-03T02:30:18.781Z,27.67
2018-08-03T02:30:59.253Z,27.66
2018-08-03T02:31:39.831Z,27.66
2018-08-03T02:32:20.264Z,27.59
2018-08-03T02:33:00.780Z,27.66
2018-08-03T02:33:41.236Z,27.6
2018-08-03T02:34:21.776Z,27.55
2018-08-03T02:35:02.312Z,27.63
2018-08-03T02:35:42.745Z,27.6
2018-08-03T02:36:23.218Z,27.59
2018-08-03T02:37:03.714Z,27.72
2018-08-03T02:37:44.214Z,27.65
2018-08-03T02:38:24.684Z,27.6
2018-08-03T02:39:05.149Z,27.46
2018-08-03T02:39:45.623Z,27.6
2018-08-03T02:40:26.083Z,27.66
2018-08-03T02:41:06.626Z,27.7
2018-08-03T02:41:47.119Z,27.62
2018-08-03T02:42:27.615Z,27.54
2018-08-03T02:43:08.097Z,27.5
2018-08-03T02:43:48.577Z,27.47
2018-08-03T02:44:29.053Z,27.44
2018-08-03T02:45:09.634Z,27.51
2018-08-03T02:45:50.116Z,27.5
2018-08-03T02:46:33.471Z,27.44
2018-08-03T02:47:13.947Z,27.47
2018-08-03T02:47:54.533Z,27.5
2018-08-03T02:48:35.051Z,27.5
2018-08-03T02:49:15.506Z,27.5
2018-08-03T02:49:56.021Z,27.49
2018-08-03T02:50:36.524Z,27.46
2018-08-03T02:51:17.081Z,27.47
2018-08-03T02:51:57.524Z,27.4
2018-08-03T02:52:38.040Z,27.5
2018-08-03T02:53:18.521Z,27.5
2018-08-03T02:53:59.023Z,27.51
2018-08-03T02:54:39.531Z,27.54
2018-08-03T02:55:20.032Z,27.41
2018-08-03T02:57:33.248Z,27.49
2018-08-03T02:58:13.753Z,27.49
2018-08-03T02:58:54.226Z,27.47
2018-08-03T02:59:34.798Z,27.46
2018-08-03T03:00:15.249Z,27.5
2018-08-03T03:00:55.755Z,27.4
2018-08-03T03:01:36.298Z,27.37
2018-08-03T03:02:16.796Z,27.37
2018-08-03T03:02:57.426Z,27.43
2018-08-03T03:03:37.919Z,27.34
2018-08-03T03:04:18.400Z,27.43
2018-08-03T03:04:58.942Z,27.32
2018-08-03T03:05:39.431Z,27.4
2018-08-03T03:06:19.928Z,27.36
2018-08-03T03:07:00.453Z,27.39
2018-08-03T03:07:40.900Z,27.43
2018-08-03T03:08:21.400Z,27.39
2018-08-03T03:09:01.897Z,27.41
2018-08-03T03:09:42.396Z,27.34
2018-08-03T03:10:22.980Z,27.39
2018-08-03T03:11:03.443Z,27.29
2018-08-03T03:11:43.942Z,27.27
2018-08-03T03:12:24.430Z,27.36
2018-08-03T03:13:04.910Z,27.32
2018-08-03T03:13:45.395Z,27.21
2018-08-03T03:14:25.868Z,27.18
2018-08-03T03:15:06.369Z,27.18
2018-08-03T03:15:46.867Z,27.25
2018-08-03T03:16:27.394Z,27.28
2018-08-03T03:17:07.880Z,27.34
2018-08-03T03:17:48.400Z,27.25
2018-08-03T03:18:28.916Z,27.03
2018-08-03T03:19:09.429Z,27.07
2018-08-03T03:19:49.997Z,27.04
2018-08-03T03:20:30.441Z,27.03
2018-08-03T03:21:10.893Z,27.04
2018-08-03T03:21:51.429Z,27.04
2018-08-03T03:22:31.936Z,27.06
2018-08-03T03:23:12.432Z,27.04
2018-08-03T03:23:52.947Z,27.09
2018-08-03T03:24:33.471Z,27.07
2018-08-03T03:25:13.961Z,27.21
2018-08-03T03:25:54.431Z,27.1
2018-08-03T03:26:34.899Z,27.1
2018-08-03T03:27:15.421Z,27.22
2018-08-03T03:27:55.904Z,27.12
2018-08-03T03:28:36.415Z,27.12
2018-08-03T03:29:16.904Z,27.04
2018-08-03T03:29:57.369Z,27.09
2018-08-03T03:30:37.885Z,27.07
2018-08-03T03:31:18.375Z,27.14
2018-08-03T03:31:58.856Z,27.06
2018-08-03T03:32:39.371Z,27.1
2018-08-03T03:33:19.861Z,27.06
2018-08-03T03:34:00.325Z,27.13
2018-08-03T03:34:40.791Z,27.02
2018-08-03T03:35:21.315Z,27
2018-08-03T03:36:01.791Z,27.12
2018-08-03T03:36:42.281Z,26.92
2018-08-03T03:37:22.785Z,26.91
2018-08-03T03:38:03.319Z,26.99
2018-08-03T03:38:43.987Z,27.06
2018-08-03T03:39:24.553Z,27.02
2018-08-03T03:40:05.007Z,27.02
2018-08-03T03:40:45.562Z,26.92
2018-08-03T03:41:26.003Z,26.87
2018-08-03T03:42:06.527Z,26.95
2018-08-03T03:42:46.980Z,26.87
2018-08-03T03:43:27.573Z,26.91
2018-08-03T03:44:07.996Z,26.91
2018-08-03T03:44:48.524Z,26.87
2018-08-03T03:45:29.128Z,26.95
2018-08-03T03:46:09.527Z,26.95
2018-08-03T03:46:49.997Z,26.85
2018-08-03T03:47:30.500Z,26.92
2018-08-03T03:48:11.020Z,26.89
2018-08-03T03:48:51.558Z,26.85
2018-08-03T03:49:32.041Z,26.85
2018-08-03T03:50:12.628Z,26.89
2018-08-03T03:50:53.144Z,27
2018-08-03T03:51:33.594Z,26.92
2018-08-03T03:52:14.088Z,26.88
2018-08-03T03:52:54.789Z,26.97
2018-08-03T03:53:35.354Z,26.88
2018-08-03T03:54:15.731Z,26.92
2018-08-03T03:54:56.252Z,26.95
2018-08-03T03:55:36.796Z,26.91
2018-08-03T03:56:17.273Z,26.94
2018-08-03T03:56:57.778Z,26.89
2018-08-03T03:57:38.244Z,26.97
2018-08-03T03:58:18.731Z,26.87
2018-08-03T03:58:59.236Z,26.89
2018-08-03T03:59:39.694Z,26.92
2018-08-03T04:00:20.184Z,26.87
2018-08-03T04:01:00.622Z,26.77
2018-08-03T04:01:41.144Z,26.75
2018-08-03T04:02:21.616Z,26.75
2018-08-03T04:03:02.084Z,26.73
2018-08-03T04:03:42.673Z,26.81
2018-08-03T04:04:23.064Z,26.82
2018-08-03T04:05:03.596Z,26.7
2018-08-03T04:07:16.783Z,26.76
2018-08-03T04:07:57.266Z,26.73
2018-08-03T04:08:37.767Z,26.63
2018-08-03T04:09:18.289Z,26.6
2018-08-03T04:09:58.748Z,26.57
2018-08-03T04:10:39.317Z,26.57
2018-08-03T04:11:19.769Z,26.62
2018-08-03T04:12:00.402Z,26.6
2018-08-03T04:12:40.921Z,26.55
2018-08-03T04:13:21.384Z,26.52
2018-08-03T04:14:01.885Z,26.6
2018-08-03T04:14:42.356Z,26.58
2018-08-03T04:15:22.857Z,26.58
2018-08-03T04:16:03.365Z,26.57
2018-08-03T04:16:43.856Z,26.6
2018-08-03T04:17:24.308Z,26.6
2018-08-03T04:18:04.822Z,26.4
2018-08-03T04:18:45.329Z,26.33
2018-08-03T04:19:25.975Z,26.36
2018-08-03T04:20:06.499Z,26.39
2018-08-03T04:20:46.951Z,26.51
2018-08-03T04:21:27.443Z,26.51
2018-08-03T04:22:07.905Z,26.54
2018-08-03T04:22:48.405Z,26.5
2018-08-03T04:23:28.888Z,26.5
2018-08-03T04:24:09.368Z,26.55
2018-08-03T04:24:49.847Z,26.48
2018-08-03T04:25:30.375Z,26.51
2018-08-03T04:26:10.814Z,26.57
2018-08-03T04:26:51.389Z,26.36
2018-08-03T04:27:31.906Z,26.5
2018-08-03T04:28:12.367Z,26.52
2018-08-03T04:28:52.844Z,26.54
2018-08-03T04:29:33.338Z,26.6
2018-08-03T04:30:13.875Z,26.57
2018-08-03T04:30:54.332Z,26.54
2018-08-03T04:31:34.859Z,26.66
2018-08-03T04:32:15.337Z,26.58
2018-08-03T04:32:55.824Z,26.63
2018-08-03T04:33:36.396Z,26.57
2018-08-03T04:34:16.943Z,26.6
2018-08-03T04:34:57.438Z,26.55
2018-08-03T04:35:37.944Z,26.54
2018-08-03T04:36:18.551Z,26.66
2018-08-03T04:36:59.013Z,26.57
2018-08-03T04:37:39.529Z,26.57
2018-08-03T04:38:20.047Z,26.55
2018-08-03T04:39:00.605Z,26.55
2018-08-03T04:39:41.077Z,26.55
2018-08-03T04:40:21.554Z,26.54
2018-08-03T04:41:02.095Z,26.52
2018-08-03T04:41:42.581Z,26.58
2018-08-03T04:42:23.130Z,26.54
2018-08-03T04:43:03.528Z,26.65
2018-08-03T04:43:44.124Z,26.65
2018-08-03T04:44:24.631Z,26.72
2018-08-03T04:45:05.126Z,26.75
2018-08-03T04:45:45.612Z,26.81
2018-08-03T04:46:26.063Z,26.82
2018-08-03T04:47:06.633Z,26.89
2018-08-03T04:47:47.168Z,26.82
2018-08-03T04:48:27.623Z,26.89
2018-08-03T04:49:08.154Z,26.88
2018-08-03T04:49:48.673Z,26.84
2018-08-03T04:50:29.587Z,26.89
2018-08-03T04:51:10.101Z,26.89
2018-08-03T04:51:50.627Z,27
2018-08-03T04:52:31.137Z,26.99
2018-08-03T04:53:11.609Z,27.09
2018-08-03T04:53:52.146Z,27.14
2018-08-03T04:54:32.594Z,27.14
2018-08-03T04:55:13.246Z,27.12
2018-08-03T04:55:53.701Z,27.09
2018-08-03T04:56:34.236Z,27.06
2018-08-03T04:57:14.690Z,27.09
2018-08-03T04:57:55.259Z,27.07
2018-08-03T04:58:35.779Z,27.09
2018-08-03T04:59:16.257Z,27.03
2018-08-03T04:59:56.744Z,27.1
2018-08-03T05:00:37.172Z,27.17
2018-08-03T05:01:17.711Z,27.21
2018-08-03T05:01:58.188Z,27.27
2018-08-03T05:02:38.655Z,27.18
2018-08-03T05:03:19.139Z,27.06
2018-08-03T05:03:59.657Z,26.99
2018-08-03T05:04:40.167Z,26.94
2018-08-03T05:05:20.668Z,26.89
2018-08-03T05:06:01.130Z,27.06
2018-08-03T05:06:41.651Z,27.03
2018-08-03T05:07:22.110Z,27.03
2018-08-03T05:08:02.707Z,27.07
2018-08-03T05:08:43.349Z,27.09
2018-08-03T05:09:23.767Z,26.97
2018-08-03T05:10:04.241Z,27.12
2018-08-03T05:10:44.701Z,27.1
2018-08-03T05:11:25.377Z,27.14
2018-08-03T05:12:05.751Z,27.12
2018-08-03T05:12:46.250Z,27.04
2018-08-03T05:13:26.743Z,27.1
2018-08-03T05:14:07.225Z,27.13
2018-08-03T05:14:47.716Z,27.13
2018-08-03T05:15:28.236Z,27.12
2018-08-03T05:16:08.738Z,27.13
2018-08-03T05:16:49.653Z,27.21
2018-08-03T05:17:30.252Z,27.19
2018-08-03T05:18:10.748Z,27.25
2018-08-03T05:18:51.271Z,27.25
2018-08-03T05:19:31.776Z,27.34
2018-08-03T05:20:12.397Z,27.32
2018-08-03T05:20:52.894Z,27.36
2018-08-03T05:21:33.608Z,27.39
2018-08-03T05:22:14.144Z,27.39
2018-08-03T05:22:54.665Z,27.37
2018-08-03T05:23:35.124Z,27.32
2018-08-03T05:24:15.699Z,27.28
2018-08-03T05:24:56.173Z,27.4
2018-08-03T05:25:36.670Z,27.36
2018-08-03T05:26:17.123Z,27.37
2018-08-03T05:26:57.686Z,27.41
2018-08-03T05:27:38.153Z,27.43
2018-08-03T05:28:18.814Z,27.44
2018-08-03T05:28:59.356Z,27.54
2018-08-03T05:29:39.847Z,27.46
2018-08-03T05:30:20.437Z,27.44
2018-08-03T05:31:01.041Z,27.49
2018-08-03T05:31:41.539Z,27.4
2018-08-03T05:32:22.084Z,27.51
2018-08-03T05:33:02.556Z,27.57
2018-08-03T05:33:43.060Z,27.49
2018-08-03T05:34:23.561Z,27.6
2018-08-03T05:35:04.120Z,27.5
2018-08-03T05:35:44.520Z,27.55
2018-08-03T05:36:25.065Z,27.57
2018-08-03T05:37:05.543Z,27.59
2018-08-03T05:37:46.024Z,27.7
2018-08-03T05:38:26.537Z,27.69
2018-08-03T05:39:06.995Z,27.74
2018-08-03T05:39:47.485Z,27.82
2018-08-03T05:40:27.998Z,27.78
2018-08-03T05:41:08.494Z,27.75
2018-08-03T05:41:49.038Z,27.79
2018-08-03T05:42:29.583Z,27.82
2018-08-03T05:43:10.012Z,27.88
2018-08-03T05:43:50.542Z,27.85
2018-08-03T05:44:30.974Z,27.92
2018-08-03T05:45:11.495Z,28.02
2018-08-03T05:45:52.013Z,27.99
2018-08-03T05:46:32.524Z,27.97
2018-08-03T05:47:13.012Z,28.03
2018-08-03T05:47:53.700Z,27.97
2018-08-03T05:48:34.103Z,27.84
2018-08-03T05:49:17.734Z,27.85
2018-08-03T05:49:58.169Z,27.93
2018-08-03T05:50:38.662Z,28.04
2018-08-03T05:51:19.216Z,28.11
2018-08-03T05:51:59.704Z,28.04
2018-08-03T05:52:40.283Z,28.14
2018-08-03T05:53:20.735Z,28.21
2018-08-03T05:54:01.372Z,28.17
2018-08-03T05:54:41.773Z,28.19
2018-08-03T05:55:22.274Z,28.27
2018-08-03T05:56:02.793Z,28.37
2018-08-03T05:56:43.295Z,28.34
2018-08-03T05:57:23.756Z,28.54
2018-08-03T05:58:04.249Z,28.51
2018-08-03T05:58:44.706Z,28.62
2018-08-03T05:59:25.280Z,28.78
2018-08-03T06:00:05.765Z,28.77
2018-08-03T06:00:46.349Z,28.81
2018-08-03T06:01:26.834Z,28.71
2018-08-03T06:02:07.322Z,28.73
2018-08-03T06:02:47.953Z,28.73
2018-08-03T06:03:28.500Z,28.88
2018-08-03T06:04:09.240Z,28.89
2018-08-03T06:04:49.806Z,28.86
2018-08-03T06:05:30.492Z,29.05
2018-08-03T06:06:10.931Z,29
2018-08-03T06:06:51.466Z,29.05
2018-08-03T06:07:31.915Z,28.96
2018-08-03T06:08:12.566Z,29.04
2018-08-03T06:08:53.021Z,29.15
2018-08-03T06:09:33.524Z,28.98
2018-08-03T06:10:14.277Z,29.14
2018-08-03T06:10:54.827Z,29.26
2018-08-03T06:11:35.335Z,29.36
2018-08-03T06:12:15.818Z,29.34
2018-08-03T06:12:56.293Z,29.33
2018-08-03T06:13:36.826Z,29.34
2018-08-03T06:14:17.444Z,29.45
2018-08-03T06:14:57.967Z,29.51
2018-08-03T06:15:38.477Z,29.55
2018-08-03T06:16:18.880Z,29.61
2018-08-03T06:16:59.415Z,29.74
2018-08-03T06:17:39.912Z,29.7
2018-08-03T06:18:20.474Z,29.74
2018-08-03T06:19:00.962Z,29.82
2018-08-03T06:19:41.443Z,29.86
2018-08-03T06:20:21.947Z,29.87
2018-08-03T06:21:02.563Z,30.02
2018-08-03T06:21:42.949Z,29.79
2018-08-03T06:22:23.469Z,29.85
2018-08-03T06:23:04.012Z,29.9
2018-08-03T06:23:44.544Z,29.8
2018-08-03T06:24:25.174Z,29.82
2018-08-03T06:25:05.601Z,29.85
2018-08-03T06:25:46.165Z,29.86
2018-08-03T06:26:26.708Z,29.76
2018-08-03T06:27:07.171Z,29.76
2018-08-03T06:27:47.714Z,29.76
2018-08-03T06:28:28.241Z,29.74
2018-08-03T06:29:08.716Z,29.79
2018-08-03T06:29:49.368Z,29.67
2018-08-03T06:30:29.810Z,29.74
2018-08-03T06:31:10.375Z,29.74
2018-08-03T06:31:50.901Z,29.67
2018-08-03T06:32:31.390Z,29.7
2018-08-03T06:33:11.866Z,29.73
2018-08-03T06:33:52.390Z,29.64
2018-08-03T06:34:32.948Z,29.64
2018-08-03T06:35:13.398Z,29.63
2018-08-03T06:35:54.002Z,29.53
2018-08-03T06:36:34.468Z,29.51
2018-08-03T06:37:15.008Z,29.64
2018-08-03T06:37:55.488Z,29.52
2018-08-03T06:38:35.973Z,29.58
2018-08-03T06:39:16.661Z,29.61
2018-08-03T06:39:57.136Z,29.55
2018-08-03T06:40:37.929Z,29.58
2018-08-03T06:41:18.405Z,29.63
2018-08-03T06:41:58.937Z,29.51
2018-08-03T06:42:39.489Z,29.52
2018-08-03T06:43:19.944Z,29.51
2018-08-03T06:44:00.606Z,29.51
2018-08-03T06:44:41.143Z,29.58
2018-08-03T06:45:21.593Z,29.55
2018-08-03T06:46:02.146Z,29.53
2018-08-03T06:46:42.662Z,29.57
2018-08-03T06:47:23.146Z,29.64
2018-08-03T06:48:03.702Z,29.48
2018-08-03T06:48:44.191Z,29.6
2018-08-03T06:49:24.674Z,29.6
2018-08-03T06:50:05.172Z,29.58
2018-08-03T06:50:45.706Z,29.65
2018-08-03T06:51:26.182Z,29.71
2018-08-03T06:52:06.642Z,29.8
2018-08-03T06:52:47.156Z,29.82
2018-08-03T06:53:27.683Z,30.01
2018-08-03T06:54:08.159Z,30.1
2018-08-03T06:54:48.645Z,30.11
2018-08-03T06:55:29.137Z,30.19
2018-08-03T06:56:09.782Z,30.2
2018-08-03T06:56:50.236Z,30.17
2018-08-03T06:57:30.769Z,30.19
2018-08-03T06:58:11.237Z,30.29
2018-08-03T06:58:51.758Z,30.31
2018-08-03T06:59:32.282Z,30.45
2018-08-03T07:00:12.727Z,30.6
2018-08-03T07:00:53.228Z,30.64
2018-08-03T07:01:33.712Z,30.7
2018-08-03T07:02:14.307Z,30.61
2018-08-03T07:02:55.038Z,30.69
2018-08-03T07:03:35.400Z,30.73
2018-08-03T07:04:15.889Z,30.77
2018-08-03T07:04:56.459Z,30.89
2018-08-03T07:05:36.924Z,30.83
2018-08-03T07:06:17.470Z,30.83
2018-08-03T07:06:57.891Z,31.02
2018-08-03T07:07:38.426Z,31.01
2018-08-03T07:08:18.906Z,31.1
2018-08-03T07:08:59.570Z,31.06
2018-08-03T07:09:40.086Z,31.02
2018-08-03T07:10:20.754Z,31.02
2018-08-03T07:11:01.262Z,31.06
2018-08-03T07:11:41.698Z,31.12
2018-08-03T07:12:22.413Z,31.12
2018-08-03T07:13:02.851Z,31.07
2018-08-03T07:13:43.442Z,31.2
2018-08-03T07:14:23.887Z,31.2
2018-08-03T07:15:04.494Z,31.21
2018-08-03T07:15:44.815Z,31.21
2018-08-03T07:16:25.326Z,31.31
2018-08-03T07:17:05.857Z,31.29
2018-08-03T07:17:46.373Z,31.41
2018-08-03T07:18:26.859Z,31.17
2018-08-03T07:19:07.360Z,31.32
2018-08-03T07:19:47.862Z,31.17
2018-08-03T07:20:28.512Z,31.17
2018-08-03T07:21:08.868Z,31.17
2018-08-03T07:21:49.372Z,31.16
2018-08-03T07:22:29.886Z,31.29
2018-08-03T07:23:10.409Z,31.39
2018-08-03T07:23:50.937Z,31.44
2018-08-03T07:24:31.359Z,31.25
2018-08-03T07:25:11.853Z,31.39
2018-08-03T07:25:52.330Z,31.35
2018-08-03T07:26:32.848Z,31.41
2018-08-03T07:27:13.504Z,31.35
2018-08-03T07:27:54.069Z,31.38
2018-08-03T07:28:34.590Z,31.31
2018-08-03T07:29:15.067Z,31.41
2018-08-03T07:29:55.599Z,31.46
2018-08-03T07:30:36.125Z,31.44
2018-08-03T07:31:16.587Z,31.21
2018-08-03T07:31:57.153Z,31.36
2018-08-03T07:32:37.567Z,31.38
2018-08-03T07:33:18.124Z,31.44
2018-08-03T07:33:58.692Z,31.36
2018-08-03T07:34:39.139Z,31.38
2018-08-03T07:35:19.605Z,31.47
2018-08-03T07:36:00.120Z,31.48
2018-08-03T07:36:40.677Z,31.5
2018-08-03T07:37:21.169Z,31.46
2018-08-03T07:38:01.697Z,31.41
2018-08-03T07:38:42.222Z,31.41
2018-08-03T07:39:22.752Z,31.53
2018-08-03T07:40:03.304Z,31.58
2018-08-03T07:40:43.712Z,31.63
2018-08-03T07:41:24.191Z,31.65
2018-08-03T07:42:04.832Z,31.51
2018-08-03T07:42:45.391Z,31.53
2018-08-03T07:43:25.905Z,31.54
2018-08-03T07:44:06.446Z,31.63
2018-08-03T07:44:47.505Z,31.72
2018-08-03T07:45:27.980Z,31.8
2018-08-03T07:46:08.502Z,31.7
2018-08-03T07:46:48.983Z,31.69
2018-08-03T07:47:29.529Z,31.7
2018-08-03T07:48:10.101Z,31.53
2018-08-03T07:48:50.577Z,31.57
2018-08-03T07:49:31.234Z,31.68
2018-08-03T07:50:11.629Z,31.7
2018-08-03T07:50:52.128Z,31.75
2018-08-03T07:51:32.621Z,31.76
2018-08-03T07:52:13.133Z,31.73
2018-08-03T07:52:53.689Z,31.73
2018-08-03T07:53:34.222Z,31.78
2018-08-03T07:54:14.667Z,31.8
2018-08-03T07:54:55.195Z,31.89
2018-08-03T07:55:35.754Z,31.8
2018-08-03T07:56:16.375Z,31.81
2018-08-03T07:56:56.776Z,31.68
2018-08-03T07:57:37.525Z,31.75
2018-08-03T07:58:18.084Z,31.62
2018-08-03T07:58:58.543Z,31.56
2018-08-03T07:59:39.045Z,31.58
2018-08-03T08:00:19.622Z,31.62
2018-08-03T08:01:00.287Z,31.61
2018-08-03T08:01:40.788Z,31.56
2018-08-03T08:02:21.577Z,31.57
2018-08-03T08:03:02.033Z,31.57
2018-08-03T08:03:42.533Z,31.58
2018-08-03T08:04:22.998Z,31.68
2018-08-03T08:05:03.524Z,31.7
2018-08-03T08:05:44.039Z,31.65
2018-08-03T08:06:24.533Z,31.61
2018-08-03T08:07:05.053Z,31.63
2018-08-03T08:07:45.733Z,31.63
2018-08-03T08:08:26.097Z,31.66
2018-08-03T08:09:06.616Z,31.58
2018-08-03T08:09:47.386Z,31.57
2018-08-03T08:10:27.630Z,31.66
2018-08-03T08:11:08.134Z,31.63
2018-08-03T08:11:48.643Z,31.56
2018-08-03T08:12:29.147Z,31.51
2018-08-03T08:13:09.724Z,31.53
2018-08-03T08:13:50.266Z,31.58
2018-08-03T08:14:30.800Z,31.65
2018-08-03T08:15:11.351Z,31.61
2018-08-03T08:15:51.866Z,31.57
2018-08-03T08:16:32.306Z,31.56
2018-08-03T08:17:12.854Z,31.62
2018-08-03T08:17:53.333Z,31.61
2018-08-03T08:18:33.835Z,31.54
2018-08-03T08:19:14.332Z,31.57
2018-08-03T08:19:54.800Z,31.57
2018-08-03T08:20:35.351Z,31.68
2018-08-03T08:21:15.936Z,31.66
2018-08-03T08:21:56.495Z,31.56
2018-08-03T08:22:37.098Z,31.57
2018-08-03T08:23:17.478Z,31.69
2018-08-03T08:23:57.993Z,31.56
2018-08-03T08:24:38.526Z,31.5
2018-08-03T08:25:19.079Z,31.38
2018-08-03T08:25:59.596Z,31.38
2018-08-03T08:26:40.041Z,31.26
2018-08-03T08:27:20.524Z,31.2
2018-08-03T08:28:01.029Z,31.19
2018-08-03T08:28:41.528Z,31.23
2018-08-03T08:29:22.034Z,31.26
2018-08-03T08:30:02.749Z,31.32
2018-08-03T08:30:43.206Z,31.31
2018-08-03T08:31:23.743Z,31.26
2018-08-03T08:32:04.338Z,31.31
2018-08-03T08:32:44.916Z,31.35
2018-08-03T08:33:25.397Z,31.43
2018-08-03T08:34:05.938Z,31.38
2018-08-03T08:34:46.417Z,31.34
2018-08-03T08:35:26.938Z,31.36
2018-08-03T08:36:07.491Z,31.48
2018-08-03T08:36:47.964Z,31.51
2018-08-03T08:37:28.479Z,31.53
2018-08-03T08:38:09.000Z,31.48
2018-08-03T08:38:49.486Z,31.53
2018-08-03T08:39:29.986Z,31.53
2018-08-03T08:40:10.573Z,31.58
2018-08-03T08:40:50.987Z,31.54
2018-08-03T08:41:31.489Z,31.61
2018-08-03T08:42:12.090Z,31.54
2018-08-03T08:42:52.450Z,31.65
2018-08-03T08:43:32.991Z,31.57
2018-08-03T08:44:13.496Z,31.63
2018-08-03T08:44:54.005Z,31.7
2018-08-03T08:45:34.471Z,31.78
2018-08-03T08:46:14.943Z,31.73
2018-08-03T08:46:55.498Z,31.68
2018-08-03T08:47:35.975Z,31.61
2018-08-03T08:48:16.486Z,31.61
2018-08-03T08:48:57.031Z,31.57